AirNav   TITAN Aviation Fuels
 
 962 users online  

6K7 Grundy Center Municipal Airport
Grundy Center, Iowa, USA

GOING TO GRUNDY CENTER?


FAA INFORMATION EFFECTIVE 02 DECEMBER 2021

Location

FAA Identifier: 6K7
Lat/Long: 42-21-02.0150N 092-50-29.8100W
42-21.033583N 092-50.496833W
42.3505597,-92.8416139
(estimated)
Elevation: 1075 ft. / 328 m (estimated)
Variation: 03E (1985)
From city: 3 miles W of GRUNDY CENTER, IA
Time zone: UTC -6 (UTC -5 during Daylight Saving Time)
Zip code: 50638

Airport Operations

Airport use: Open to the public
Activation date: 08/1963
Control tower: no
ARTCC: CHICAGO CENTER
FSS: FORT DODGE FLIGHT SERVICE STATION
NOTAMs facility: FOD (NOTAM-D service available)
Attendance: UNATNDD
Wind indicator: lighted
Segmented circle: no

Airport Communications

CTAF: 122.9
WX ASOS at MIW (15 nm S): 128.325 (641-752-2339)

Nearby radio navigation aids

VOR radial/distance  VOR name  Freq  Var
JWJr011/14.7ELMWOOD VOR/DME109.4001E
ALOr238/23.2WATERLOO VOR/DME112.2000E
TNUr016/36.0NEWTON VOR/DME112.5003E

 
NDB name  Hdg/Dist  Freq  Var  ID
WAPSIE261/40.020600EIIB .. .. -...

Airport Services

Parking: tiedowns
Airframe service: NONE
Powerplant service: NONE
Bottled oxygen: NONE
Bulk oxygen: NONE

Runway Information

Runway 17/35

Dimensions: 2250 x 60 ft. / 686 x 18 m
Surface: turf, in fair condition
Runway edge markings: & 35 MARKED AT CORNERS & EDGES WITH YELLOW CONES.
RUNWAY 17  RUNWAY 35
Latitude: 42-21.218833N42-20.848333N
Longitude: 092-50.499333W092-50.494333W
Elevation: 1058.0 ft.1075.0 ft.
Traffic pattern: leftleft
Obstructions: 10 ft. road, 200 ft. from runway, 20:1 slope to clear
APCH RATIO 50:1 AT DSPLCD THLD.
4 ft. pole, 120 ft. from runway, 30:1 slope to clear

Airport Ownership and Management from official FAA records

Ownership: Publicly-owned
Owner: CITY OF GRUNDY CENTER
703 F AVENUE, SUITE 2
GRUNDY CENTER, IA 50638
Phone 319-825-6118
Manager: DAN BANGASSER
703 F AVENUE, SUITE 2
GRUNDY CENTER, IA 50638
Phone 319-825-6118

Airport Operational Statistics

Aircraft based on the field: 1
Ultralights: 1
    
Aircraft operations: avg 21/month *
60% transient general aviation
40% local general aviation
* for 12-month period ending 04 August 2020

Additional Remarks

E98 T-HANGARS ADJACENT TO RWY.
ARPT CLSD WINTER MONTHS.
RADIO CONTROL ACFT ON AND AROUND ARPT.
RY 17 +29 FT LGTD POLE 495 T FM DSPLCD THLD 155 FT R.
FOR CD CTC CHICAGO ARTCC AT 630-906-8921.

Instrument Procedures

There are no published instrument procedures at 6K7.

Some nearby airports with instrument procedures:

KMIW - Marshalltown Municipal Airport (15 nm S)
KIFA - Iowa Falls Municipal Airport (20 nm W)
KALO - Waterloo Regional Airport (23 nm NE)
C25 - Waverly Municipal Airport (28 nm NE)
KHPT - Hampton Municipal Airport (28 nm NW)
 
Loc | Ops | Rwys | IFR | FBO | Links
Com | Nav | Svcs | Stats | Notes
Area around 6K7 (Grundy Center Municipal Airport)
 
Road maps at: MapQuest Bing Google
 
Aerial photo
WARNING: Photo may not be current or correct
Aerial photo of 6K7 (Grundy Center Municipal Airport)
Do you have a better or more recent aerial photo of Grundy Center Municipal Airport that you would like to share? If so, please send us your photo.

 
Sectional chart

 
Airport distance calculator
Flying to Grundy Center Municipal Airport? Find the distance to fly.

From to 6K7

Sunrise and sunset
Times for 03-Dec-2021
 Local
(UTC-6)
 Zulu
(UTC)
Morning civil twilight06:5312:53
Sunrise07:2413:24
Sunset16:3822:38
Evening civil twilight17:1023:10

Current date and time
Zulu (UTC)  04-Dec-2021 00:01:58
Local (UTC-6)  03-Dec-2021 18:01:58
 
METAR
KMIW 
14nm S 
032353Z AUTO 36005KT 10SM CLR 03/M02 A3009 RMK AO2 SLP200 T00331022 10128 20028 53025
KIFA 
20nm W 
032355Z AUTO 34013G17KT 10SM CLR 07/01 A3012 RMK AO2 T00710005 10120 20055
KALO 
23nm NE 
032354Z 35008KT 10SM CLR 06/M01 A3011 RMK AO2 SLP203 T00561006 10122 20039 53027
KHPT 
28nm NW 
032355Z AUTO 00000KT 10SM CLR 05/00 A3013 RMK AO2
TAF
KALO 
23nm NE 
031723Z 0318/0418 08006KT P6SM SKC FM032200 33013KT P6SM SCT200 FM040600 VRB04KT P6SM SCT150
NOTAMs
Click for the latest NOTAMs
NOTAMs are issued by the DoD/FAA and will open in a separate window not controlled by AirNav.

 

 
 

Would you like to see your business listed on this page?

 If your business provides an interesting product or service to pilots, flight crews, aircraft, or users of the Grundy Center Municipal Airport, you should consider listing it here.  To start the listing process, click on the button below
 
Add a business
 

Other Pages about Grundy Center Municipal Airport

Page from the Iowa Airport Directory
 
Update a link
 
Copyright © AirNav, LLC. All rights reserved. Privacy Policy  Contact